Ellsworth, Illinois
Current Conditions -  °F | °C
As of 6:56 PM on Tuesday 25 Nov 2014 (Local Time) from KBMI Reporting Station
Clear Clear  
Wind Chill: 18°   Ceiling: Unl
Heat Index: 24°   Visibility: 10mi
Dew Point: 21°   Wind: 5mph
Humidity: 88%   Direction: 80°E
Pressure: 30.18"   Gusts: NA
Location:  40.45°N, 88.72°W
Report Text: KBMI 260056Z 08004KT 10SM CLR M04/M06 A3018 RMK AO2 T10441061 SLP242
Loading
Personal Weather Stations






























Interactive Weather Map New forecast layout! Learn more

10-Day Weather Forecast

Advertisements
Track Severe Weather on mobile